Terminal Aerodrome Forecast
Issued by NWS

Home | Current Version | Previous Version | Graphics & Text | Print | Product List | Glossary On
Versions: 1 2 3 4 5 6 7 8 9 10 11 12 13 14 15 16 17 18
273
FTUS43 KGRB 062338
TAFMTW
TAF
KMTW 062338Z 0700/0724 25014G25KT P6SM BKN035
     FM070400 25012G23KT P6SM BKN028
     FM071500 25017G30KT P6SM BKN035=

USA.gov is the U.S. government's official web portal to all federal, state and local government web resources and services.